Time;durP1;ratioP1;P1;durP2;ratioP2;P2;SDS_P1;SDS_P2;PMS_P1;PMS_P2;Temp;Humidity;BMP_temperature;BMP_pressure;BME280_temperature;BME280_humidity;BME280_pressure;Samples;Min_cycle;Max_cycle;Signal;HPM_P1;HPM_P2
2023/10/24 00:01:48;;;;;;;7.30;6.60;;;;;;;-146.61;100.00;58846.50;5118349;27;20051;-81
2023/10/24 00:04:15;;;;;;;8.60;5.97;;;;;;;-146.61;100.00;58846.50;5119185;27;20051;-79
2023/10/24 00:06:41;;;;;;;10.35;7.07;;;;;;;-146.61;100.00;58846.50;5115791;27;20050;-78
2023/10/24 00:09:07;;;;;;;9.48;6.90;;;;;;;-146.61;100.00;58846.50;5115692;27;20035;-76
2023/10/24 00:11:34;;;;;;;8.65;7.50;;;;;;;-146.61;100.00;58846.50;5111482;27;20055;-77
2023/10/24 00:14:00;;;;;;;8.60;6.40;;;;;;;-146.61;100.00;58846.50;5117666;27;20481;-79
2023/10/24 00:16:27;;;;;;;7.63;6.60;;;;;;;-146.61;100.00;58846.50;5097047;27;20490;-78
2023/10/24 00:18:53;;;;;;;8.40;7.07;;;;;;;-146.61;100.00;58846.50;5103124;27;20031;-80
2023/10/24 00:21:20;;;;;;;8.70;6.55;;;;;;;-146.61;100.00;58846.50;5117446;27;20122;-80
2023/10/24 00:23:46;;;;;;;12.43;7.00;;;;;;;-146.61;100.00;58846.50;5117324;27;20525;-77
2023/10/24 00:26:13;;;;;;;7.32;6.40;;;;;;;-146.61;100.00;58846.50;5116573;27;20095;-79
2023/10/24 00:28:39;;;;;;;7.93;6.88;;;;;;;-146.61;100.00;58846.50;5118418;27;20035;-80
2023/10/24 00:31:07;;;;;;;7.50;6.78;;;;;;;-146.61;100.00;58846.50;5119960;27;20051;-79
2023/10/24 00:33:33;;;;;;;9.75;5.82;;;;;;;-146.61;100.00;58846.50;5117120;27;20084;-77
2023/10/24 00:36:00;;;;;;;8.68;6.80;;;;;;;-146.61;100.00;58846.50;5123851;27;20047;-79
2023/10/24 00:38:26;;;;;;;9.05;6.32;;;;;;;-146.61;100.00;58846.50;5120608;27;20463;-78
2023/10/24 00:40:53;;;;;;;8.38;6.85;;;;;;;-146.61;100.00;58846.50;5118267;27;20067;-79
2023/10/24 00:43:19;;;;;;;7.60;6.80;;;;;;;-146.61;100.00;58846.50;5099578;27;20043;-78
2023/10/24 00:45:46;;;;;;;8.15;6.07;;;;;;;-146.61;100.00;58846.50;5098677;27;20050;-78
2023/10/24 00:48:13;;;;;;;7.75;6.43;;;;;;;-146.61;100.00;58846.50;5094586;28;20047;-80
2023/10/24 00:50:39;;;;;;;7.22;5.63;;;;;;;-146.61;100.00;58846.50;5116524;27;20133;-80
2023/10/24 00:53:12;;;;;;;8.77;7.68;;;;;;;-146.61;100.00;58846.50;5121560;27;20095;-79
2023/10/24 00:55:39;;;;;;;9.43;6.67;;;;;;;-146.61;100.00;58846.50;5118108;27;20047;-78
2023/10/24 00:58:08;;;;;;;8.48;6.95;;;;;;;-146.61;100.00;58846.50;5117306;27;20047;-79
2023/10/24 01:00:36;;;;;;;8.27;6.05;;;;;;;-146.61;100.00;58846.50;5131055;27;20043;-79
2023/10/24 01:03:08;;;;;;;10.70;7.40;;;;;;;-146.61;100.00;58846.50;5124668;27;20100;-77
2023/10/24 01:05:36;;;;;;;7.18;6.47;;;;;;;-146.61;100.00;58846.50;5099547;27;20121;-78
2023/10/24 01:08:02;;;;;;;8.05;6.45;;;;;;;-146.61;100.00;58846.50;5125754;27;20043;-77
2023/10/24 01:10:29;;;;;;;9.40;6.88;;;;;;;-146.61;100.00;58846.50;5126222;27;20126;-81
2023/10/24 01:12:56;;;;;;;10.57;8.00;;;;;;;-146.61;100.00;58846.50;5126406;27;20050;-79
2023/10/24 01:15:22;;;;;;;8.00;6.60;;;;;;;-146.61;100.00;58846.50;5105053;27;20518;-80
2023/10/24 01:17:53;;;;;;;10.25;6.47;;;;;;;-146.61;100.00;58846.50;5105280;27;20374;-79
2023/10/24 01:20:20;;;;;;;13.15;7.22;;;;;;;-146.61;100.00;58846.50;5123705;27;20035;-78
2023/10/24 01:22:47;;;;;;;9.02;6.72;;;;;;;-146.61;100.00;58846.50;5124353;27;20028;-78
2023/10/24 01:25:15;;;;;;;9.57;6.30;;;;;;;-146.61;100.00;58846.50;5105723;27;20043;-77
2023/10/24 01:27:44;;;;;;;8.05;5.82;;;;;;;-146.61;100.00;58846.50;5114276;27;20039;-78
2023/10/24 01:30:12;;;;;;;7.40;6.20;;;;;;;-146.61;100.00;58846.50;5126536;27;20043;-76
2023/10/24 01:32:39;;;;;;;9.55;6.97;;;;;;;-146.61;100.00;58846.50;5120497;27;20154;-79
2023/10/24 01:35:07;;;;;;;10.00;6.50;;;;;;;-146.61;100.00;58846.50;5118624;27;20043;-78
2023/10/24 01:37:33;;;;;;;9.02;6.85;;;;;;;-146.61;100.00;58846.50;5095948;27;20406;-80
2023/10/24 01:40:00;;;;;;;7.90;6.13;;;;;;;-146.61;100.00;58846.50;5115509;27;20047;-78
2023/10/24 01:42:26;;;;;;;16.55;6.57;;;;;;;-146.61;100.00;58846.50;5121241;27;20650;-80
2023/10/24 01:44:52;;;;;;;7.90;6.00;;;;;;;-146.61;100.00;58846.50;5120858;27;20139;-79
2023/10/24 01:47:22;;;;;;;10.57;7.65;;;;;;;-146.61;100.00;58846.50;5115833;27;20023;-77
2023/10/24 01:49:49;;;;;;;7.13;5.82;;;;;;;-146.61;100.00;58846.50;5089195;27;20620;-76
2023/10/24 01:52:15;;;;;;;12.20;6.18;;;;;;;-146.61;100.00;58846.50;5099303;27;20047;-82
2023/10/24 01:54:42;;;;;;;15.63;7.82;;;;;;;-146.61;100.00;58846.50;5117693;27;20822;-80
2023/10/24 01:57:08;;;;;;;10.70;6.88;;;;;;;-146.61;100.00;58846.50;5115800;27;20818;-80
2023/10/24 01:59:35;;;;;;;8.65;6.03;;;;;;;-146.61;100.00;58846.50;5100909;27;20146;-81
2023/10/24 02:02:01;;;;;;;8.85;5.95;;;;;;;-146.61;100.00;58846.50;5121711;27;20565;-78
2023/10/24 02:04:28;;;;;;;7.90;6.22;;;;;;;-146.61;100.00;58846.50;5101816;27;20146;-79
2023/10/24 02:06:54;;;;;;;12.43;6.68;;;;;;;-146.61;100.00;58846.50;5099343;27;20035;-77
2023/10/24 02:09:24;;;;;;;10.80;6.88;;;;;;;-146.61;100.00;58846.50;5118734;27;20744;-80
2023/10/24 02:11:54;;;;;;;7.07;6.28;;;;;;;-146.61;100.00;58846.50;5117908;27;20051;-78
2023/10/24 02:14:23;;;;;;;7.43;6.22;;;;;;;-146.61;100.00;58846.50;5119197;27;20479;-81
2023/10/24 02:16:49;;;;;;;11.02;7.10;;;;;;;-146.61;100.00;58846.50;5120562;27;20470;-78
2023/10/24 02:19:16;;;;;;;9.43;6.05;;;;;;;-146.61;100.00;58846.50;5121692;27;20163;-79
2023/10/24 02:21:42;;;;;;;9.60;6.55;;;;;;;-146.61;100.00;58846.50;5118306;27;20058;-78
2023/10/24 02:24:09;;;;;;;9.50;6.68;;;;;;;-146.61;100.00;58846.50;5125555;27;20036;-79
2023/10/24 02:26:35;;;;;;;8.52;6.70;;;;;;;-146.61;100.00;58846.50;5116153;27;20070;-76
2023/10/24 02:29:02;;;;;;;7.05;6.22;;;;;;;-146.61;100.00;58846.50;5119445;27;20039;-78
2023/10/24 02:31:28;;;;;;;6.78;5.93;;;;;;;-146.61;100.00;58846.50;5122201;27;20620;-81
2023/10/24 02:33:55;;;;;;;9.57;6.32;;;;;;;-146.61;100.00;58846.50;5119259;27;20518;-79
2023/10/24 02:36:21;;;;;;;11.48;6.63;;;;;;;-146.61;100.00;58846.50;5117879;27;20043;-82
2023/10/24 02:38:48;;;;;;;9.27;6.82;;;;;;;-146.61;100.00;58846.50;5115336;27;20149;-80
2023/10/24 02:41:15;;;;;;;7.60;6.25;;;;;;;-146.61;100.00;58846.50;5119745;27;20158;-80
2023/10/24 02:43:41;;;;;;;10.52;7.35;;;;;;;-146.61;100.00;58846.50;5100621;27;20054;-77
2023/10/24 02:46:08;;;;;;;9.50;6.88;;;;;;;-146.61;100.00;58846.50;5119598;27;20043;-78
2023/10/24 02:48:34;;;;;;;8.63;6.95;;;;;;;-146.61;100.00;58846.50;5090647;27;20058;-78
2023/10/24 02:51:01;;;;;;;9.27;6.85;;;;;;;-146.61;100.00;58846.50;5098127;27;20050;-78
2023/10/24 02:53:27;;;;;;;11.23;7.10;;;;;;;-146.61;100.00;58846.50;5100188;27;20496;-81
2023/10/24 02:55:54;;;;;;;7.43;6.72;;;;;;;-146.61;100.00;58846.50;5100083;27;20063;-79
2023/10/24 02:58:20;;;;;;;10.45;7.05;;;;;;;-146.61;100.00;58846.50;5114985;27;20118;-82
2023/10/24 03:00:47;;;;;;;7.65;6.25;;;;;;;-146.61;100.00;58846.50;5097602;27;20047;-79
2023/10/24 03:03:14;;;;;;;10.05;7.60;;;;;;;-146.61;100.00;58846.50;5121750;27;20067;-80
2023/10/24 03:05:40;;;;;;;9.63;7.72;;;;;;;-146.61;100.00;58846.50;5118299;27;20039;-79
2023/10/24 03:08:07;;;;;;;9.95;6.60;;;;;;;-146.61;100.00;58846.50;5120097;27;20154;-78
2023/10/24 03:10:39;;;;;;;10.27;6.78;;;;;;;-146.61;100.00;58846.50;5110906;27;20047;-80
2023/10/24 03:13:06;;;;;;;9.65;7.97;;;;;;;-146.61;100.00;58846.50;5120758;27;20174;-76
2023/10/24 03:15:39;;;;;;;11.38;7.30;;;;;;;-146.61;100.00;58846.50;5118389;27;20745;-77
2023/10/24 03:18:05;;;;;;;7.43;6.40;;;;;;;-146.61;100.00;58846.50;5116256;27;20039;-79
2023/10/24 03:20:47;;;;;;;8.90;6.93;;;;;;;-146.61;100.00;58846.50;5066042;27;20897;-80
2023/10/24 03:23:13;;;;;;;8.38;7.10;;;;;;;-146.61;100.00;58846.50;5101079;27;20670;-80
2023/10/24 03:25:43;;;;;;;8.27;6.97;;;;;;;-146.61;100.00;58846.50;5116505;27;20047;-78
2023/10/24 03:28:11;;;;;;;11.90;7.57;;;;;;;-146.61;100.00;58846.50;5111680;27;20134;-78
2023/10/24 03:30:37;;;;;;;13.45;8.20;;;;;;;-146.61;100.00;58846.50;5117720;27;20057;-80
2023/10/24 03:33:04;;;;;;;10.13;7.82;;;;;;;-146.61;100.00;58846.50;5098312;27;20059;-79
2023/10/24 03:35:33;;;;;;;13.57;7.70;;;;;;;-146.61;100.00;58846.50;5111568;27;20395;-80
2023/10/24 03:38:01;;;;;;;10.35;7.38;;;;;;;-146.61;100.00;58846.50;5100692;27;20828;-78
2023/10/24 03:40:28;;;;;;;11.52;7.88;;;;;;;-146.61;100.00;58846.50;5096488;27;20408;-79
2023/10/24 03:42:54;;;;;;;13.65;9.00;;;;;;;-146.61;100.00;58846.50;5098718;27;20039;-78
2023/10/24 03:45:21;;;;;;;16.38;8.25;;;;;;;-146.61;100.00;58846.50;5117260;27;20047;-77
2023/10/24 03:47:49;;;;;;;11.48;7.72;;;;;;;-146.61;100.00;58846.50;5116704;27;20046;-78
2023/10/24 03:50:16;;;;;;;10.93;9.07;;;;;;;-146.61;100.00;58846.50;5113063;27;20053;-77
2023/10/24 03:52:43;;;;;;;12.45;7.78;;;;;;;-146.61;100.00;58846.50;5110700;27;20043;-78
2023/10/24 03:55:12;;;;;;;10.68;7.97;;;;;;;-146.61;100.00;58846.50;5119635;27;20048;-76
2023/10/24 03:57:40;;;;;;;12.10;7.68;;;;;;;-146.61;100.00;58846.50;5114874;27;20043;-78
2023/10/24 04:00:08;;;;;;;10.60;7.82;;;;;;;-146.61;100.00;58846.50;5120931;27;20054;-76
2023/10/24 04:02:35;;;;;;;9.00;7.47;;;;;;;-146.61;100.00;58846.50;5101643;27;20739;-78
2023/10/24 04:05:03;;;;;;;9.77;7.35;;;;;;;-146.61;100.00;58846.50;5117947;27;20031;-75
2023/10/24 04:07:30;;;;;;;9.55;7.55;;;;;;;-146.61;100.00;58846.50;5116477;27;20081;-76
2023/10/24 04:09:57;;;;;;;9.85;7.32;;;;;;;-146.61;100.00;58846.50;5115344;27;20071;-78
2023/10/24 04:12:24;;;;;;;12.75;7.15;;;;;;;-146.61;100.00;58846.50;5116973;27;20048;-76
2023/10/24 04:14:50;;;;;;;10.38;7.45;;;;;;;-146.61;100.00;58846.50;5114189;27;20047;-77
2023/10/24 04:17:17;;;;;;;12.18;7.30;;;;;;;-146.61;100.00;58846.50;5116245;27;20166;-77
2023/10/24 04:19:45;;;;;;;8.02;7.03;;;;;;;-146.61;100.00;58846.50;5111888;27;20119;-76
2023/10/24 04:22:12;;;;;;;11.85;7.80;;;;;;;-146.61;100.00;58846.50;5114976;27;20047;-76
2023/10/24 04:24:39;;;;;;;9.00;7.07;;;;;;;-146.61;100.00;58846.50;5112558;27;20043;-78
2023/10/24 04:27:07;;;;;;;12.63;7.50;;;;;;;-146.61;100.00;58846.50;5115623;27;20066;-79
2023/10/24 04:29:34;;;;;;;12.05;7.40;;;;;;;-146.61;100.00;58846.50;5099940;27;20154;-80
2023/10/24 04:32:00;;;;;;;12.70;7.95;;;;;;;-146.61;100.00;58846.50;5111010;27;20063;-77
2023/10/24 04:34:29;;;;;;;12.27;7.03;;;;;;;-146.61;100.00;58846.50;5115675;27;20050;-81
2023/10/24 04:36:58;;;;;;;8.05;6.35;;;;;;;-146.61;100.00;58846.50;5125166;27;20039;-77
2023/10/24 04:39:25;;;;;;;10.82;6.90;;;;;;;-146.61;100.00;58846.50;5126327;27;20103;-77
2023/10/24 04:41:52;;;;;;;8.05;7.03;;;;;;;-146.61;100.00;58846.50;5124270;27;20111;-77
2023/10/24 04:44:19;;;;;;;11.50;6.65;;;;;;;-146.61;100.00;58846.50;5104420;27;20043;-80
2023/10/24 04:46:46;;;;;;;13.55;8.25;;;;;;;-146.61;100.00;58846.50;5121165;27;20047;-78
2023/10/24 04:49:13;;;;;;;12.25;7.78;;;;;;;-146.61;100.00;58846.50;5104202;27;20039;-79
2023/10/24 04:51:40;;;;;;;8.00;6.40;;;;;;;-146.61;100.00;58846.50;5118590;27;20043;-76
2023/10/24 04:54:07;;;;;;;11.30;6.38;;;;;;;-146.61;100.00;58846.50;5112489;27;20554;-77
2023/10/24 04:56:33;;;;;;;8.05;6.55;;;;;;;-146.61;100.00;58846.50;5124562;27;20078;-81
2023/10/24 04:59:02;;;;;;;12.07;7.35;;;;;;;-146.61;100.00;58846.50;5124155;27;20035;-78
2023/10/24 05:01:37;;;;;;;9.20;6.90;;;;;;;-146.61;100.00;58846.50;5105740;27;20107;-79
2023/10/24 05:04:03;;;;;;;9.23;6.30;;;;;;;-146.61;100.00;58846.50;5125095;27;20050;-81
2023/10/24 05:06:32;;;;;;;10.52;6.82;;;;;;;-146.61;100.00;58846.50;5119386;27;20037;-82
2023/10/24 05:08:59;;;;;;;8.98;6.07;;;;;;;-146.61;100.00;58846.50;5129266;27;20122;-79
2023/10/24 05:11:25;;;;;;;9.68;6.55;;;;;;;-146.61;100.00;58846.50;5105700;27;20134;-77
2023/10/24 05:13:52;;;;;;;8.02;7.25;;;;;;;-146.61;100.00;58846.50;5104113;27;20825;-79
2023/10/24 05:16:18;;;;;;;8.85;6.30;;;;;;;-146.61;100.00;58846.50;5118721;27;20414;-78
2023/10/24 05:18:45;;;;;;;7.35;6.22;;;;;;;-146.61;100.00;58846.50;5118454;27;20040;-78
2023/10/24 05:21:11;;;;;;;10.10;6.63;;;;;;;-146.61;100.00;58846.50;5120949;27;20123;-80
2023/10/24 05:23:38;;;;;;;8.90;6.45;;;;;;;-146.61;100.00;58846.50;5122790;27;20043;-78
2023/10/24 05:26:04;;;;;;;6.60;5.97;;;;;;;-146.61;100.00;58846.50;5100783;27;20049;-81
2023/10/24 05:28:32;;;;;;;7.03;6.32;;;;;;;-146.61;100.00;58846.50;5122774;27;20297;-79
2023/10/24 05:30:58;;;;;;;8.43;5.65;;;;;;;-146.61;100.00;58846.50;5111725;27;20115;-80
2023/10/24 05:33:24;;;;;;;7.75;5.63;;;;;;;-146.61;100.00;58846.50;5106294;27;20047;-79
2023/10/24 05:35:52;;;;;;;8.35;6.45;;;;;;;-146.61;100.00;58846.50;5102781;27;20047;-83
2023/10/24 05:38:19;;;;;;;6.53;5.28;;;;;;;-146.61;100.00;58846.50;5107889;27;20469;-80
2023/10/24 05:40:45;;;;;;;8.75;6.10;;;;;;;-146.61;100.00;58846.50;5104018;27;20417;-78
2023/10/24 05:43:12;;;;;;;9.43;6.18;;;;;;;-146.61;100.00;58846.50;5126645;27;20084;-78
2023/10/24 05:45:38;;;;;;;7.78;5.57;;;;;;;-146.61;100.00;58846.50;5124668;27;20068;-82
2023/10/24 05:48:05;;;;;;;9.32;6.00;;;;;;;-146.61;100.00;58846.50;5102660;27;20048;-78
2023/10/24 05:50:33;;;;;;;6.55;5.75;;;;;;;-146.61;100.00;58846.50;5096956;27;20526;-82
2023/10/24 05:52:59;;;;;;;7.65;6.05;;;;;;;-146.61;100.00;58846.50;5121463;27;20039;-80
2023/10/24 05:55:26;;;;;;;14.60;7.03;;;;;;;-146.61;100.00;58846.50;5119275;27;20050;-79
2023/10/24 05:57:55;;;;;;;11.52;5.72;;;;;;;-146.61;100.00;58846.50;5098519;27;20043;-81
2023/10/24 06:00:22;;;;;;;8.68;5.90;;;;;;;-146.61;100.00;58846.50;5118842;27;20041;-78
2023/10/24 06:02:49;;;;;;;13.65;6.30;;;;;;;-146.61;100.00;58846.50;5120497;27;20050;-79
2023/10/24 06:05:16;;;;;;;9.07;6.35;;;;;;;-146.61;100.00;58846.50;5133940;27;20051;-80
2023/10/24 06:07:43;;;;;;;7.07;6.00;;;;;;;-146.61;100.00;58846.50;5119191;27;20195;-79
2023/10/24 06:10:10;;;;;;;7.22;5.18;;;;;;;-146.61;100.00;58846.50;5104471;27;20043;-79
2023/10/24 06:12:38;;;;;;;18.35;6.15;;;;;;;-146.61;100.00;58846.50;5123012;27;20122;-81
2023/10/24 06:15:06;;;;;;;8.70;5.53;;;;;;;-146.61;100.00;58846.50;5124333;27;20070;-79
2023/10/24 06:17:32;;;;;;;7.90;5.63;;;;;;;-146.61;100.00;58846.50;5124475;27;20102;-80
2023/10/24 06:19:59;;;;;;;9.82;6.45;;;;;;;-146.61;100.00;58846.50;5105824;27;20047;-77
2023/10/24 06:22:28;;;;;;;7.32;5.35;;;;;;;-146.61;100.00;58846.50;5122899;27;20031;-78
2023/10/24 06:24:55;;;;;;;8.43;6.32;;;;;;;-146.61;100.00;58846.50;5100386;27;20115;-78
2023/10/24 06:27:24;;;;;;;11.55;5.53;;;;;;;-146.61;100.00;58846.50;5124213;27;20039;-80
2023/10/24 06:29:54;;;;;;;7.45;4.78;;;;;;;-146.61;100.00;58846.50;5119257;27;20046;-80
2023/10/24 06:32:23;;;;;;;7.97;4.75;;;;;;;-146.61;100.00;58846.50;5104001;27;20043;-82
2023/10/24 06:34:57;;;;;;;8.98;4.97;;;;;;;-146.61;100.00;58846.50;5120971;27;20127;-79
2023/10/24 06:37:23;;;;;;;8.10;4.72;;;;;;;-146.61;100.00;58846.50;5100892;27;20044;-77
2023/10/24 06:39:51;;;;;;;7.47;5.22;;;;;;;-146.61;100.00;58846.50;5122754;27;20042;-77
2023/10/24 06:42:17;;;;;;;13.32;4.55;;;;;;;-146.61;100.00;58846.50;5131976;27;20053;-81
2023/10/24 06:44:44;;;;;;;7.15;4.85;;;;;;;-146.61;100.00;58846.50;5127737;27;20039;-80
2023/10/24 06:47:10;;;;;;;7.32;4.88;;;;;;;-146.61;100.00;58846.50;5110029;27;20074;-80
2023/10/24 06:49:37;;;;;;;6.45;4.60;;;;;;;-146.61;100.00;58846.50;5128853;27;20045;-78
2023/10/24 06:52:03;;;;;;;8.10;4.00;;;;;;;-146.61;100.00;58846.50;5105882;28;20066;-77
2023/10/24 06:54:30;;;;;;;11.00;4.28;;;;;;;-146.61;100.00;58846.50;5131534;27;20041;-78
2023/10/24 06:56:56;;;;;;;7.10;3.58;;;;;;;-146.61;100.00;58846.50;5121239;27;20100;-79
2023/10/24 06:59:23;;;;;;;8.57;3.80;;;;;;;-146.61;100.00;58846.50;5108579;27;20043;-77
2023/10/24 07:01:50;;;;;;;6.28;4.40;;;;;;;-146.61;100.00;58846.50;5127513;27;20050;-77
2023/10/24 07:04:17;;;;;;;3.80;3.50;;;;;;;-146.61;100.00;58846.50;5120373;27;20036;-79
2023/10/24 07:06:43;;;;;;;4.75;3.17;;;;;;;-146.61;100.00;58846.50;5123651;27;20043;-77
2023/10/24 07:09:10;;;;;;;4.22;3.15;;;;;;;-146.61;100.00;58846.50;5126682;27;20039;-78
2023/10/24 07:11:36;;;;;;;6.38;3.30;;;;;;;-146.61;100.00;58846.50;5118589;27;20077;-77
2023/10/24 07:14:03;;;;;;;3.85;3.17;;;;;;;-146.61;100.00;58846.50;5106866;27;20482;-78
2023/10/24 07:16:30;;;;;;;6.07;3.13;;;;;;;-146.61;100.00;58846.50;5124112;27;20620;-79
2023/10/24 07:18:56;;;;;;;4.45;2.65;;;;;;;-146.61;100.00;58846.50;5119224;27;20033;-78
2023/10/24 07:21:23;;;;;;;4.43;3.45;;;;;;;-146.61;100.00;58846.50;5122657;27;20035;-79
2023/10/24 07:23:50;;;;;;;5.32;3.03;;;;;;;-146.61;100.00;58846.50;5123906;27;20067;-78
2023/10/24 07:26:16;;;;;;;6.20;3.28;;;;;;;-146.61;100.00;58846.50;5099293;27;20379;-79
2023/10/24 07:28:43;;;;;;;3.88;3.42;;;;;;;-146.61;100.00;58846.50;5121975;27;20035;-76
2023/10/24 07:31:09;;;;;;;3.42;2.90;;;;;;;-146.61;100.00;58846.50;5119044;27;20047;-80
2023/10/24 07:33:36;;;;;;;4.88;2.92;;;;;;;-146.61;100.00;58846.50;5117363;27;20047;-80
2023/10/24 07:36:07;;;;;;;5.05;3.63;;;;;;;-146.61;100.00;58846.50;5121331;27;20047;-79
2023/10/24 07:38:33;;;;;;;3.92;2.75;;;;;;;-146.61;100.00;58846.50;5097654;27;20051;-81
2023/10/24 07:41:00;;;;;;;2.85;2.60;;;;;;;-146.61;100.00;58846.50;5102079;27;20130;-77
2023/10/24 07:43:27;;;;;;;7.50;3.30;;;;;;;-146.61;100.00;58846.50;5119250;27;20039;-79
2023/10/24 07:45:54;;;;;;;4.22;2.88;;;;;;;-146.61;100.00;58846.50;5102205;27;20626;-80
2023/10/24 07:48:21;;;;;;;5.70;2.80;;;;;;;-146.61;100.00;58846.50;5119137;27;20036;-77
2023/10/24 07:50:58;;;;;;;9.05;2.30;;;;;;;-146.61;100.00;58846.50;5116189;27;20035;-76
2023/10/24 07:53:26;;;;;;;7.32;3.25;;;;;;;-146.61;100.00;58846.50;5121207;27;20041;-77
2023/10/24 07:55:56;;;;;;;7.00;2.42;;;;;;;-146.61;100.00;58846.50;5118496;27;20050;-81
2023/10/24 07:58:23;;;;;;;2.28;2.00;;;;;;;-146.61;100.00;58846.50;5120768;27;20059;-78
2023/10/24 08:00:49;;;;;;;5.00;2.80;;;;;;;-146.61;100.00;58846.50;5099786;27;20130;-80
2023/10/24 08:03:23;;;;;;;2.70;1.83;;;;;;;-146.61;100.00;58846.50;5122139;27;20069;-80
2023/10/24 08:05:50;;;;;;;;;;;;;;;-146.61;100.00;58846.50;5118651;27;20035;-77
2023/10/24 08:08:17;;;;;;;5.65;2.20;;;;;;;-146.61;100.00;58846.50;5116547;27;19919;-77
2023/10/24 08:10:43;;;;;;;2.72;2.13;;;;;;;-146.61;100.00;58846.50;5117052;27;20071;-77
2023/10/24 08:13:09;;;;;;;7.53;1.95;;;;;;;-146.61;100.00;58846.50;5118094;27;20047;-77
2023/10/24 08:15:36;;;;;;;2.53;2.08;;;;;;;-146.61;100.00;58846.50;5114233;27;20042;-81
2023/10/24 08:18:02;;;;;;;3.30;1.88;;;;;;;-146.61;100.00;58846.50;5104735;27;20139;-79
2023/10/24 08:20:29;;;;;;;3.40;2.10;;;;;;;-146.61;100.00;58846.50;5121679;27;20470;-78
2023/10/24 08:22:57;;;;;;;1.75;1.58;;;;;;;-146.61;100.00;58846.50;5118252;27;20031;-79
2023/10/24 08:25:24;;;;;;;6.85;2.60;;;;;;;-146.61;100.00;58846.50;5120141;27;20039;-80
2023/10/24 08:27:50;;;;;;;5.85;1.70;;;;;;;-146.61;100.00;58846.50;5100549;27;20054;-75
2023/10/24 08:30:17;;;;;;;5.00;1.70;;;;;;;-146.61;100.00;58846.50;5105424;27;20071;-79
2023/10/24 08:32:43;;;;;;;4.72;2.15;;;;;;;-146.61;100.00;58846.50;5115297;27;20050;-76
2023/10/24 08:35:10;;;;;;;5.63;2.13;;;;;;;-146.61;100.00;58846.50;5100314;28;20080;-79
2023/10/24 08:37:36;;;;;;;6.07;2.95;;;;;;;-146.61;100.00;58846.50;5120613;27;20044;-81
2023/10/24 08:40:04;;;;;;;3.83;1.98;;;;;;;-146.61;100.00;58846.50;5118682;27;20082;-78
2023/10/24 08:42:30;;;;;;;4.05;2.45;;;;;;;-146.61;100.00;58846.50;5120654;27;20092;-78
2023/10/24 08:44:59;;;;;;;6.55;2.30;;;;;;;-146.61;100.00;58846.50;5101180;27;20058;-82
2023/10/24 08:47:27;;;;;;;4.15;2.15;;;;;;;-146.61;100.00;58846.50;5116692;27;20043;-79
2023/10/24 08:49:56;;;;;;;4.78;2.30;;;;;;;-146.61;100.00;58846.50;5107524;27;20441;-83
2023/10/24 08:52:23;;;;;;;5.53;1.65;;;;;;;-146.61;100.00;58846.50;5118599;27;20036;-79
2023/10/24 08:54:51;;;;;;;2.60;1.88;;;;;;;-146.61;100.00;58846.50;5117153;27;20035;-80
2023/10/24 08:57:23;;;;;;;5.38;2.83;;;;;;;-146.61;100.00;58846.50;5118052;27;20031;-79
2023/10/24 08:59:51;;;;;;;6.38;2.60;;;;;;;-146.61;100.00;58846.50;5117000;27;20089;-77
2023/10/24 09:02:18;;;;;;;4.78;1.73;;;;;;;-146.61;100.00;58846.50;5122041;27;20501;-80
2023/10/24 09:04:45;;;;;;;5.55;2.13;;;;;;;-146.61;100.00;58846.50;5116071;27;20521;-80
2023/10/24 09:07:12;;;;;;;3.25;1.88;;;;;;;-146.61;100.00;58846.50;5120263;27;20035;-77
2023/10/24 09:09:41;;;;;;;2.40;1.80;;;;;;;-146.61;100.00;58846.50;5119524;27;20705;-79
2023/10/24 09:12:08;;;;;;;7.90;1.92;;;;;;;-146.61;100.00;58846.50;5119846;27;20055;-77
2023/10/24 09:14:35;;;;;;;5.72;2.53;;;;;;;-146.61;100.00;58846.50;5097704;27;20049;-78
2023/10/24 09:17:03;;;;;;;2.03;1.42;;;;;;;-146.61;100.00;58846.50;5100800;27;20662;-77
2023/10/24 09:19:30;;;;;;;4.13;1.92;;;;;;;-146.61;100.00;58846.50;5114985;27;20043;-80
2023/10/24 09:21:57;;;;;;;3.78;1.85;;;;;;;-146.61;100.00;58846.50;5119144;27;20047;-81
2023/10/24 09:24:24;;;;;;;3.30;1.38;;;;;;;-146.61;100.00;58846.50;5102314;27;20043;-78
2023/10/24 09:26:55;;;;;;;6.30;2.17;;;;;;;-146.61;100.00;58846.50;5115639;27;20437;-78
2023/10/24 09:29:24;;;;;;;4.30;1.55;;;;;;;-146.61;100.00;58846.50;5099585;27;20561;-78
2023/10/24 09:31:51;;;;;;;6.28;2.28;;;;;;;-146.61;100.00;58846.50;5114886;27;20463;-78
2023/10/24 09:34:19;;;;;;;2.03;1.73;;;;;;;-146.61;100.00;58846.50;5118302;27;20118;-79
2023/10/24 09:36:49;;;;;;;4.15;1.90;;;;;;;-146.61;100.00;58846.50;5123929;27;20058;-80
2023/10/24 09:39:16;;;;;;;1.90;1.30;;;;;;;-146.61;100.00;58846.50;5123776;27;20656;-76
2023/10/24 09:41:47;;;;;;;2.45;1.58;;;;;;;-146.61;100.00;58846.50;5122774;27;20047;-77
2023/10/24 09:44:14;;;;;;;1.80;1.50;;;;;;;-146.61;100.00;58846.50;5120441;27;20044;-76
2023/10/24 09:46:41;;;;;;;7.32;1.85;;;;;;;-146.61;100.00;58846.50;5104768;27;20486;-81
2023/10/24 09:49:08;;;;;;;4.63;1.83;;;;;;;-146.61;100.00;58846.50;5101326;27;20122;-77
2023/10/24 09:51:39;;;;;;;11.23;2.95;;;;;;;-146.61;100.00;58846.50;5104105;27;20407;-79
2023/10/24 09:54:07;;;;;;;9.45;2.35;;;;;;;-146.61;100.00;58846.50;5120883;27;20053;-80
2023/10/24 09:56:33;;;;;;;4.28;1.48;;;;;;;-146.61;100.00;58846.50;5117459;27;20046;-77
2023/10/24 09:59:00;;;;;;;3.05;1.60;;;;;;;-146.61;100.00;58846.50;5120123;27;20077;-78
2023/10/24 10:01:30;;;;;;;1.40;1.30;;;;;;;-146.61;100.00;58846.50;5098209;27;20133;-80
2023/10/24 10:03:58;;;;;;;3.60;1.42;;;;;;;-146.61;100.00;58846.50;5118103;27;20044;-78
2023/10/24 10:06:27;;;;;;;4.25;1.70;;;;;;;-146.61;100.00;58846.50;5119146;27;20107;-78
2023/10/24 10:08:56;;;;;;;2.38;1.73;;;;;;;-146.61;100.00;58846.50;5101492;27;20555;-79
2023/10/24 10:11:23;;;;;;;2.55;0.98;;;;;;;-146.61;100.00;58846.50;5109743;27;20186;-78
2023/10/24 10:13:55;;;;;;;3.03;1.25;;;;;;;-146.61;100.00;58846.50;5099185;27;20059;-81
2023/10/24 10:16:40;;;;;;;3.35;1.50;;;;;;;-146.61;100.00;58846.50;5099350;27;20454;-79
2023/10/24 10:19:10;;;;;;;3.00;1.67;;;;;;;-146.61;100.00;58846.50;5102132;27;20444;-77
2023/10/24 10:22:19;;;;;;;2.75;1.52;;;;;;;-146.61;100.00;58846.50;5083939;27;20055;-80
2023/10/24 10:25:08;;;;;;;2.72;1.40;;;;;;;-146.61;100.00;58846.50;5063582;27;20043;-80
2023/10/24 10:27:54;;;;;;;2.58;1.45;;;;;;;-146.61;100.00;58846.50;5096574;27;20036;-79
2023/10/24 10:30:40;;;;;;;2.70;1.45;;;;;;;-146.61;100.00;58846.50;5104638;27;20051;-80
2023/10/24 10:33:10;;;;;;;5.80;2.03;;;;;;;-146.61;100.00;58846.50;5105965;27;20047;-81
2023/10/24 10:35:58;;;;;;;4.70;2.95;;;;;;;-146.61;100.00;58846.50;5089235;27;20047;-77
2023/10/24 10:38:35;;;;;;;3.63;1.20;;;;;;;-146.61;100.00;58846.50;5091401;28;20075;-77
2023/10/24 10:41:27;;;;;;;2.45;1.88;;;;;;;-146.61;100.00;58846.50;5087346;27;20537;-80
2023/10/24 10:43:55;;;;;;;3.85;1.98;;;;;;;-146.61;100.00;58846.50;5096191;27;20079;-77
2023/10/24 10:46:25;;;;;;;1.55;1.45;;;;;;;-146.61;100.00;58846.50;5089639;28;20059;-79
2023/10/24 10:49:03;;;;;;;1.60;1.30;;;;;;;-146.61;100.00;58846.50;5101920;27;20032;-82
2023/10/24 10:51:37;;;;;;;1.35;1.00;;;;;;;-146.61;100.00;58846.50;5107482;27;20040;-80
2023/10/24 10:54:31;;;;;;;2.70;1.02;;;;;;;-146.61;100.00;58846.50;5102503;27;20248;-79
2023/10/24 10:57:04;;;;;;;3.92;1.25;;;;;;;-146.61;100.00;58846.50;5100590;27;20116;-82
2023/10/24 10:59:44;;;;;;;1.45;1.25;;;;;;;-146.61;100.00;58846.50;5092162;27;20043;-80
2023/10/24 11:02:34;;;;;;;5.90;1.05;;;;;;;-146.61;100.00;58846.50;5085048;28;20100;-79
2023/10/24 11:05:01;;;;;;;2.65;1.17;;;;;;;-146.61;100.00;58846.50;5097348;27;20742;-75
2023/10/24 11:07:54;;;;;;;4.35;2.53;;;;;;;-146.61;100.00;58846.50;5095298;27;20039;-77
2023/10/24 11:10:20;;;;;;;5.28;1.63;;;;;;;-146.61;100.00;58846.50;5097030;27;20059;-81
2023/10/24 11:12:50;;;;;;;2.17;1.13;;;;;;;-146.61;100.00;58846.50;5079304;28;20039;-82